sensor_id;sensor_type;location;lat;lon;timestamp;P1;durP1;ratioP1;P2;durP2;ratioP2
53479;SDS011;56133;51.012;-1.648;2022-10-23T00:01:15;25.27;;;9.23;;
53479;SDS011;56133;51.012;-1.648;2022-10-23T00:03:49;27.85;;;9.88;;
53479;SDS011;56133;51.012;-1.648;2022-10-23T00:06:15;34.17;;;10.10;;
53479;SDS011;56133;51.012;-1.648;2022-10-23T00:08:41;23.38;;;9.85;;
53479;SDS011;56133;51.012;-1.648;2022-10-23T00:11:08;35.17;;;10.07;;
53479;SDS011;56133;51.012;-1.648;2022-10-23T00:13:35;30.20;;;9.55;;
53479;SDS011;56133;51.012;-1.648;2022-10-23T00:16:01;25.75;;;9.38;;
53479;SDS011;56133;51.012;-1.648;2022-10-23T00:18:26;32.00;;;10.15;;
53479;SDS011;56133;51.012;-1.648;2022-10-23T00:20:52;32.03;;;10.77;;
53479;SDS011;56133;51.012;-1.648;2022-10-23T00:23:17;29.95;;;9.90;;
53479;SDS011;56133;51.012;-1.648;2022-10-23T00:25:43;32.20;;;10.32;;
53479;SDS011;56133;51.012;-1.648;2022-10-23T00:28:09;29.95;;;10.27;;
53479;SDS011;56133;51.012;-1.648;2022-10-23T00:30:34;32.42;;;10.38;;
53479;SDS011;56133;51.012;-1.648;2022-10-23T00:33:00;34.20;;;9.73;;
53479;SDS011;56133;51.012;-1.648;2022-10-23T00:35:25;28.48;;;9.32;;
53479;SDS011;56133;51.012;-1.648;2022-10-23T00:37:51;28.00;;;10.25;;
53479;SDS011;56133;51.012;-1.648;2022-10-23T00:40:16;28.60;;;9.80;;
53479;SDS011;56133;51.012;-1.648;2022-10-23T00:42:42;25.00;;;9.27;;
53479;SDS011;56133;51.012;-1.648;2022-10-23T00:45:10;29.15;;;9.50;;
53479;SDS011;56133;51.012;-1.648;2022-10-23T00:47:48;29.02;;;9.18;;
53479;SDS011;56133;51.012;-1.648;2022-10-23T00:50:14;18.92;;;8.32;;
53479;SDS011;56133;51.012;-1.648;2022-10-23T00:52:41;24.55;;;9.27;;
53479;SDS011;56133;51.012;-1.648;2022-10-23T00:55:12;27.40;;;8.35;;
53479;SDS011;56133;51.012;-1.648;2022-10-23T00:57:42;22.30;;;8.10;;
53479;SDS011;56133;51.012;-1.648;2022-10-23T01:00:13;24.45;;;8.25;;
53479;SDS011;56133;51.012;-1.648;2022-10-23T01:03:02;27.70;;;7.88;;
53479;SDS011;56133;51.012;-1.648;2022-10-23T01:05:29;24.58;;;7.32;;
53479;SDS011;56133;51.012;-1.648;2022-10-23T01:08:04;26.38;;;8.07;;
53479;SDS011;56133;51.012;-1.648;2022-10-23T01:10:41;26.75;;;8.10;;
53479;SDS011;56133;51.012;-1.648;2022-10-23T01:18:20;25.85;;;7.95;;
53479;SDS011;56133;51.012;-1.648;2022-10-23T01:20:55;19.73;;;7.78;;
53479;SDS011;56133;51.012;-1.648;2022-10-23T01:26:23;24.42;;;7.60;;
53479;SDS011;56133;51.012;-1.648;2022-10-23T01:29:00;21.92;;;7.10;;
53479;SDS011;56133;51.012;-1.648;2022-10-23T01:34:31;21.42;;;7.50;;
53479;SDS011;56133;51.012;-1.648;2022-10-23T01:37:10;23.90;;;7.03;;
53479;SDS011;56133;51.012;-1.648;2022-10-23T01:39:39;28.73;;;7.57;;
53479;SDS011;56133;51.012;-1.648;2022-10-23T01:42:12;23.98;;;7.63;;
53479;SDS011;56133;51.012;-1.648;2022-10-23T01:44:43;22.42;;;7.18;;
53479;SDS011;56133;51.012;-1.648;2022-10-23T01:47:14;22.15;;;6.90;;
53479;SDS011;56133;51.012;-1.648;2022-10-23T01:49:42;22.65;;;7.15;;
53479;SDS011;56133;51.012;-1.648;2022-10-23T01:52:11;21.02;;;7.30;;
53479;SDS011;56133;51.012;-1.648;2022-10-23T01:54:38;19.45;;;6.72;;
53479;SDS011;56133;51.012;-1.648;2022-10-23T01:57:07;26.45;;;6.90;;
53479;SDS011;56133;51.012;-1.648;2022-10-23T01:59:38;18.60;;;5.80;;
53479;SDS011;56133;51.012;-1.648;2022-10-23T02:02:09;25.80;;;6.88;;
53479;SDS011;56133;51.012;-1.648;2022-10-23T02:04:37;24.70;;;6.55;;
53479;SDS011;56133;51.012;-1.648;2022-10-23T02:07:06;18.17;;;6.35;;
53479;SDS011;56133;51.012;-1.648;2022-10-23T02:09:32;23.05;;;6.88;;
53479;SDS011;56133;51.012;-1.648;2022-10-23T02:12:02;17.80;;;6.72;;
53479;SDS011;56133;51.012;-1.648;2022-10-23T02:14:50;21.60;;;6.70;;
53479;SDS011;56133;51.012;-1.648;2022-10-23T02:17:23;19.67;;;6.35;;
53479;SDS011;56133;51.012;-1.648;2022-10-23T02:19:55;22.60;;;6.47;;
53479;SDS011;56133;51.012;-1.648;2022-10-23T02:22:29;20.80;;;6.28;;
53479;SDS011;56133;51.012;-1.648;2022-10-23T02:25:07;18.98;;;6.32;;
53479;SDS011;56133;51.012;-1.648;2022-10-23T02:27:45;22.90;;;6.13;;
53479;SDS011;56133;51.012;-1.648;2022-10-23T02:30:13;22.88;;;7.28;;
53479;SDS011;56133;51.012;-1.648;2022-10-23T02:32:42;17.75;;;5.50;;
53479;SDS011;56133;51.012;-1.648;2022-10-23T02:35:11;22.80;;;6.07;;
53479;SDS011;56133;51.012;-1.648;2022-10-23T02:37:37;17.98;;;5.82;;
53479;SDS011;56133;51.012;-1.648;2022-10-23T02:40:03;19.98;;;5.97;;
53479;SDS011;56133;51.012;-1.648;2022-10-23T02:42:33;20.73;;;6.70;;
53479;SDS011;56133;51.012;-1.648;2022-10-23T02:48:08;19.25;;;6.25;;
53479;SDS011;56133;51.012;-1.648;2022-10-23T02:50:52;20.17;;;6.18;;
53479;SDS011;56133;51.012;-1.648;2022-10-23T02:56:37;18.42;;;5.78;;
53479;SDS011;56133;51.012;-1.648;2022-10-23T03:02:02;11.40;;;5.20;;
53479;SDS011;56133;51.012;-1.648;2022-10-23T03:04:38;15.23;;;5.28;;
53479;SDS011;56133;51.012;-1.648;2022-10-23T03:07:09;17.60;;;5.15;;
53479;SDS011;56133;51.012;-1.648;2022-10-23T03:09:36;16.40;;;5.38;;
53479;SDS011;56133;51.012;-1.648;2022-10-23T03:12:02;20.25;;;5.35;;
53479;SDS011;56133;51.012;-1.648;2022-10-23T03:14:28;14.75;;;5.35;;
53479;SDS011;56133;51.012;-1.648;2022-10-23T03:16:53;17.67;;;5.22;;
53479;SDS011;56133;51.012;-1.648;2022-10-23T03:19:19;15.52;;;5.07;;
53479;SDS011;56133;51.012;-1.648;2022-10-23T03:21:44;21.48;;;5.32;;
53479;SDS011;56133;51.012;-1.648;2022-10-23T03:24:09;19.10;;;4.88;;
53479;SDS011;56133;51.012;-1.648;2022-10-23T03:26:35;16.70;;;4.53;;
53479;SDS011;56133;51.012;-1.648;2022-10-23T03:29:00;20.42;;;5.18;;
53479;SDS011;56133;51.012;-1.648;2022-10-23T03:31:26;13.48;;;4.63;;
53479;SDS011;56133;51.012;-1.648;2022-10-23T03:33:51;17.00;;;4.47;;
53479;SDS011;56133;51.012;-1.648;2022-10-23T03:36:17;15.85;;;4.00;;
53479;SDS011;56133;51.012;-1.648;2022-10-23T03:38:42;12.63;;;4.22;;
53479;SDS011;56133;51.012;-1.648;2022-10-23T03:41:08;14.48;;;4.30;;
53479;SDS011;56133;51.012;-1.648;2022-10-23T03:43:33;17.77;;;4.50;;
53479;SDS011;56133;51.012;-1.648;2022-10-23T03:45:59;24.48;;;5.35;;
53479;SDS011;56133;51.012;-1.648;2022-10-23T03:48:26;19.00;;;4.95;;
53479;SDS011;56133;51.012;-1.648;2022-10-23T03:50:51;13.65;;;4.82;;
53479;SDS011;56133;51.012;-1.648;2022-10-23T03:53:17;14.25;;;4.60;;
53479;SDS011;56133;51.012;-1.648;2022-10-23T03:55:43;12.80;;;4.65;;
53479;SDS011;56133;51.012;-1.648;2022-10-23T03:58:08;15.77;;;4.53;;
53479;SDS011;56133;51.012;-1.648;2022-10-23T04:00:34;16.10;;;4.60;;
53479;SDS011;56133;51.012;-1.648;2022-10-23T04:03:00;13.93;;;4.65;;
53479;SDS011;56133;51.012;-1.648;2022-10-23T04:05:25;15.77;;;4.28;;
53479;SDS011;56133;51.012;-1.648;2022-10-23T04:07:51;16.27;;;5.07;;
53479;SDS011;56133;51.012;-1.648;2022-10-23T04:10:16;20.55;;;4.93;;
53479;SDS011;56133;51.012;-1.648;2022-10-23T04:12:42;10.65;;;4.65;;
53479;SDS011;56133;51.012;-1.648;2022-10-23T04:15:08;16.67;;;5.28;;
53479;SDS011;56133;51.012;-1.648;2022-10-23T04:17:33;18.05;;;5.10;;
53479;SDS011;56133;51.012;-1.648;2022-10-23T04:19:59;17.88;;;4.50;;
53479;SDS011;56133;51.012;-1.648;2022-10-23T04:22:24;18.08;;;5.13;;
53479;SDS011;56133;51.012;-1.648;2022-10-23T04:24:50;13.13;;;4.75;;
53479;SDS011;56133;51.012;-1.648;2022-10-23T04:27:15;15.38;;;4.90;;
53479;SDS011;56133;51.012;-1.648;2022-10-23T04:29:41;13.50;;;4.80;;
53479;SDS011;56133;51.012;-1.648;2022-10-23T04:32:06;13.02;;;4.90;;
53479;SDS011;56133;51.012;-1.648;2022-10-23T04:34:32;14.55;;;4.65;;
53479;SDS011;56133;51.012;-1.648;2022-10-23T04:36:57;15.00;;;5.10;;
53479;SDS011;56133;51.012;-1.648;2022-10-23T04:39:23;14.40;;;4.20;;
53479;SDS011;56133;51.012;-1.648;2022-10-23T04:41:48;11.90;;;4.85;;
53479;SDS011;56133;51.012;-1.648;2022-10-23T04:44:14;11.15;;;4.50;;
53479;SDS011;56133;51.012;-1.648;2022-10-23T04:46:40;11.63;;;3.80;;
53479;SDS011;56133;51.012;-1.648;2022-10-23T04:49:05;12.52;;;4.63;;
53479;SDS011;56133;51.012;-1.648;2022-10-23T04:51:31;17.75;;;5.20;;
53479;SDS011;56133;51.012;-1.648;2022-10-23T04:53:56;15.38;;;4.50;;
53479;SDS011;56133;51.012;-1.648;2022-10-23T04:56:21;15.95;;;4.50;;
53479;SDS011;56133;51.012;-1.648;2022-10-23T04:58:47;14.45;;;4.30;;
53479;SDS011;56133;51.012;-1.648;2022-10-23T05:01:13;11.77;;;4.22;;
53479;SDS011;56133;51.012;-1.648;2022-10-23T05:03:38;13.95;;;4.20;;
53479;SDS011;56133;51.012;-1.648;2022-10-23T05:06:04;11.68;;;4.05;;
53479;SDS011;56133;51.012;-1.648;2022-10-23T05:08:30;19.02;;;4.50;;
53479;SDS011;56133;51.012;-1.648;2022-10-23T05:10:55;11.57;;;4.25;;
53479;SDS011;56133;51.012;-1.648;2022-10-23T05:13:21;8.80;;;3.88;;
53479;SDS011;56133;51.012;-1.648;2022-10-23T05:15:48;18.77;;;5.00;;
53479;SDS011;56133;51.012;-1.648;2022-10-23T05:18:25;13.43;;;4.25;;
53479;SDS011;56133;51.012;-1.648;2022-10-23T05:20:58;15.25;;;4.97;;
53479;SDS011;56133;51.012;-1.648;2022-10-23T05:23:34;12.68;;;4.28;;
53479;SDS011;56133;51.012;-1.648;2022-10-23T05:26:01;12.57;;;4.22;;
53479;SDS011;56133;51.012;-1.648;2022-10-23T05:28:28;12.43;;;4.45;;
53479;SDS011;56133;51.012;-1.648;2022-10-23T05:30:54;12.27;;;4.80;;
53479;SDS011;56133;51.012;-1.648;2022-10-23T05:33:20;12.52;;;4.13;;
53479;SDS011;56133;51.012;-1.648;2022-10-23T05:35:45;14.27;;;4.53;;
53479;SDS011;56133;51.012;-1.648;2022-10-23T05:38:11;20.40;;;5.15;;
53479;SDS011;56133;51.012;-1.648;2022-10-23T05:40:38;18.33;;;4.90;;
53479;SDS011;56133;51.012;-1.648;2022-10-23T05:43:04;16.02;;;4.63;;
53479;SDS011;56133;51.012;-1.648;2022-10-23T05:45:29;15.50;;;4.90;;
53479;SDS011;56133;51.012;-1.648;2022-10-23T05:47:55;14.45;;;4.93;;
53479;SDS011;56133;51.012;-1.648;2022-10-23T05:50:20;13.45;;;4.70;;
53479;SDS011;56133;51.012;-1.648;2022-10-23T05:52:46;14.18;;;4.60;;
53479;SDS011;56133;51.012;-1.648;2022-10-23T05:55:12;15.75;;;5.60;;
53479;SDS011;56133;51.012;-1.648;2022-10-23T05:57:38;14.43;;;4.78;;
53479;SDS011;56133;51.012;-1.648;2022-10-23T06:00:04;13.50;;;4.80;;
53479;SDS011;56133;51.012;-1.648;2022-10-23T06:02:31;14.73;;;4.80;;
53479;SDS011;56133;51.012;-1.648;2022-10-23T06:04:57;14.45;;;5.22;;
53479;SDS011;56133;51.012;-1.648;2022-10-23T06:07:28;13.70;;;4.95;;
53479;SDS011;56133;51.012;-1.648;2022-10-23T06:09:54;17.55;;;5.00;;
53479;SDS011;56133;51.012;-1.648;2022-10-23T06:12:20;16.70;;;5.70;;
53479;SDS011;56133;51.012;-1.648;2022-10-23T06:14:46;17.45;;;5.80;;
53479;SDS011;56133;51.012;-1.648;2022-10-23T06:17:13;21.00;;;6.22;;
53479;SDS011;56133;51.012;-1.648;2022-10-23T06:19:39;14.63;;;4.55;;
53479;SDS011;56133;51.012;-1.648;2022-10-23T06:22:05;18.52;;;5.57;;
53479;SDS011;56133;51.012;-1.648;2022-10-23T06:24:30;15.15;;;4.60;;
53479;SDS011;56133;51.012;-1.648;2022-10-23T06:26:56;18.15;;;5.05;;
53479;SDS011;56133;51.012;-1.648;2022-10-23T06:29:22;12.63;;;4.35;;
53479;SDS011;56133;51.012;-1.648;2022-10-23T06:31:47;17.42;;;3.90;;
53479;SDS011;56133;51.012;-1.648;2022-10-23T06:34:13;15.23;;;3.85;;
53479;SDS011;56133;51.012;-1.648;2022-10-23T06:36:39;8.38;;;3.28;;
53479;SDS011;56133;51.012;-1.648;2022-10-23T06:39:04;14.32;;;3.70;;
53479;SDS011;56133;51.012;-1.648;2022-10-23T06:41:30;10.23;;;3.22;;
53479;SDS011;56133;51.012;-1.648;2022-10-23T06:43:56;13.30;;;3.47;;
53479;SDS011;56133;51.012;-1.648;2022-10-23T06:46:21;8.40;;;3.42;;
53479;SDS011;56133;51.012;-1.648;2022-10-23T06:48:47;25.75;;;4.53;;
53479;SDS011;56133;51.012;-1.648;2022-10-23T06:51:14;13.70;;;2.90;;
53479;SDS011;56133;51.012;-1.648;2022-10-23T06:53:41;17.42;;;3.58;;
53479;SDS011;56133;51.012;-1.648;2022-10-23T06:56:08;9.25;;;3.20;;
53479;SDS011;56133;51.012;-1.648;2022-10-23T06:58:37;15.18;;;3.88;;
53479;SDS011;56133;51.012;-1.648;2022-10-23T07:01:04;11.32;;;3.85;;
53479;SDS011;56133;51.012;-1.648;2022-10-23T07:03:32;15.80;;;4.70;;
53479;SDS011;56133;51.012;-1.648;2022-10-23T07:06:01;18.35;;;5.45;;
53479;SDS011;56133;51.012;-1.648;2022-10-23T07:08:30;16.13;;;4.95;;
53479;SDS011;56133;51.012;-1.648;2022-10-23T07:10:56;15.65;;;4.53;;
53479;SDS011;56133;51.012;-1.648;2022-10-23T07:13:22;22.40;;;5.57;;
53479;SDS011;56133;51.012;-1.648;2022-10-23T07:15:49;15.90;;;5.32;;
53479;SDS011;56133;51.012;-1.648;2022-10-23T07:18:15;19.00;;;5.10;;
53479;SDS011;56133;51.012;-1.648;2022-10-23T07:20:41;22.13;;;5.47;;
53479;SDS011;56133;51.012;-1.648;2022-10-23T07:23:07;18.08;;;5.25;;
53479;SDS011;56133;51.012;-1.648;2022-10-23T07:25:35;18.98;;;5.72;;
53479;SDS011;56133;51.012;-1.648;2022-10-23T07:28:02;22.75;;;5.32;;
53479;SDS011;56133;51.012;-1.648;2022-10-23T07:30:28;19.08;;;5.00;;
53479;SDS011;56133;51.012;-1.648;2022-10-23T07:32:54;21.67;;;5.03;;
53479;SDS011;56133;51.012;-1.648;2022-10-23T07:35:20;24.05;;;5.82;;
53479;SDS011;56133;51.012;-1.648;2022-10-23T07:37:45;15.02;;;4.85;;
53479;SDS011;56133;51.012;-1.648;2022-10-23T07:40:12;22.15;;;6.07;;
53479;SDS011;56133;51.012;-1.648;2022-10-23T07:42:38;13.35;;;5.13;;
53479;SDS011;56133;51.012;-1.648;2022-10-23T07:45:03;18.38;;;4.45;;
53479;SDS011;56133;51.012;-1.648;2022-10-23T07:47:31;21.02;;;5.45;;
53479;SDS011;56133;51.012;-1.648;2022-10-23T07:49:57;19.20;;;5.10;;
53479;SDS011;56133;51.012;-1.648;2022-10-23T07:52:23;17.35;;;4.13;;
53479;SDS011;56133;51.012;-1.648;2022-10-23T07:54:51;19.60;;;4.97;;
53479;SDS011;56133;51.012;-1.648;2022-10-23T07:57:17;15.63;;;4.20;;
53479;SDS011;56133;51.012;-1.648;2022-10-23T07:59:43;21.42;;;5.07;;
53479;SDS011;56133;51.012;-1.648;2022-10-23T08:02:10;25.17;;;4.50;;
53479;SDS011;56133;51.012;-1.648;2022-10-23T08:04:36;15.10;;;4.05;;
53479;SDS011;56133;51.012;-1.648;2022-10-23T08:07:01;16.92;;;4.20;;
53479;SDS011;56133;51.012;-1.648;2022-10-23T08:09:27;15.48;;;4.47;;
53479;SDS011;56133;51.012;-1.648;2022-10-23T08:11:52;19.80;;;4.20;;
53479;SDS011;56133;51.012;-1.648;2022-10-23T08:14:18;18.77;;;4.47;;
53479;SDS011;56133;51.012;-1.648;2022-10-23T08:16:43;21.45;;;4.72;;
53479;SDS011;56133;51.012;-1.648;2022-10-23T08:19:09;19.88;;;4.50;;
53479;SDS011;56133;51.012;-1.648;2022-10-23T08:21:36;16.98;;;5.15;;
53479;SDS011;56133;51.012;-1.648;2022-10-23T08:24:02;15.00;;;4.50;;
53479;SDS011;56133;51.012;-1.648;2022-10-23T08:26:28;20.60;;;4.90;;
53479;SDS011;56133;51.012;-1.648;2022-10-23T08:28:55;18.80;;;4.10;;
53479;SDS011;56133;51.012;-1.648;2022-10-23T08:31:22;14.95;;;4.32;;
53479;SDS011;56133;51.012;-1.648;2022-10-23T08:33:48;17.90;;;4.57;;
53479;SDS011;56133;51.012;-1.648;2022-10-23T08:36:17;14.80;;;4.13;;
53479;SDS011;56133;51.012;-1.648;2022-10-23T08:38:45;19.95;;;3.65;;
53479;SDS011;56133;51.012;-1.648;2022-10-23T08:41:22;15.15;;;4.60;;
53479;SDS011;56133;51.012;-1.648;2022-10-23T08:44:10;18.50;;;4.72;;
53479;SDS011;56133;51.012;-1.648;2022-10-23T08:46:45;17.65;;;4.05;;
53479;SDS011;56133;51.012;-1.648;2022-10-23T08:51:52;19.35;;;4.38;;
53479;SDS011;56133;51.012;-1.648;2022-10-23T08:54:25;16.67;;;3.72;;
53479;SDS011;56133;51.012;-1.648;2022-10-23T08:57:00;13.07;;;3.33;;
53479;SDS011;56133;51.012;-1.648;2022-10-23T08:59:37;14.18;;;2.70;;
53479;SDS011;56133;51.012;-1.648;2022-10-23T09:02:43;12.32;;;2.85;;
53479;SDS011;56133;51.012;-1.648;2022-10-23T09:05:11;11.18;;;2.30;;
53479;SDS011;56133;51.012;-1.648;2022-10-23T09:10:57;17.35;;;2.30;;
53479;SDS011;56133;51.012;-1.648;2022-10-23T09:13:49;10.27;;;2.08;;
53479;SDS011;56133;51.012;-1.648;2022-10-23T09:16:24;11.60;;;2.40;;
53479;SDS011;56133;51.012;-1.648;2022-10-23T09:18:55;9.93;;;1.90;;
53479;SDS011;56133;51.012;-1.648;2022-10-23T09:21:26;10.85;;;2.20;;
53479;SDS011;56133;51.012;-1.648;2022-10-23T09:23:52;8.23;;;2.28;;
53479;SDS011;56133;51.012;-1.648;2022-10-23T09:26:18;8.48;;;2.22;;
53479;SDS011;56133;51.012;-1.648;2022-10-23T09:28:48;6.60;;;1.63;;
53479;SDS011;56133;51.012;-1.648;2022-10-23T09:31:16;5.50;;;1.73;;
53479;SDS011;56133;51.012;-1.648;2022-10-23T09:33:53;6.57;;;1.80;;
53479;SDS011;56133;51.012;-1.648;2022-10-23T09:36:20;5.15;;;1.45;;
53479;SDS011;56133;51.012;-1.648;2022-10-23T09:38:49;8.75;;;1.63;;
53479;SDS011;56133;51.012;-1.648;2022-10-23T09:41:21;6.88;;;1.50;;
53479;SDS011;56133;51.012;-1.648;2022-10-23T09:46:42;7.18;;;1.38;;
53479;SDS011;56133;51.012;-1.648;2022-10-23T09:55:18;8.90;;;1.73;;
53479;SDS011;56133;51.012;-1.648;2022-10-23T09:57:28;5.57;;;0.95;;
53479;SDS011;56133;51.012;-1.648;2022-10-23T09:59:58;5.50;;;0.70;;
53479;SDS011;56133;51.012;-1.648;2022-10-23T10:02:30;5.72;;;1.00;;
53479;SDS011;56133;51.012;-1.648;2022-10-23T10:04:57;7.40;;;0.95;;
53479;SDS011;56133;51.012;-1.648;2022-10-23T10:07:24;4.85;;;0.80;;
53479;SDS011;56133;51.012;-1.648;2022-10-23T10:09:52;1.90;;;0.60;;
53479;SDS011;56133;51.012;-1.648;2022-10-23T10:15:15;4.65;;;0.82;;
53479;SDS011;56133;51.012;-1.648;2022-10-23T10:26:01;4.28;;;0.60;;
53479;SDS011;56133;51.012;-1.648;2022-10-23T10:37:09;4.83;;;0.60;;
53479;SDS011;56133;51.012;-1.648;2022-10-23T10:45:33;4.43;;;0.45;;
53479;SDS011;56133;51.012;-1.648;2022-10-23T10:56:43;2.25;;;0.30;;
53479;SDS011;56133;51.012;-1.648;2022-10-23T10:59:25;2.65;;;0.40;;
53479;SDS011;56133;51.012;-1.648;2022-10-23T11:01:55;3.35;;;0.40;;
53479;SDS011;56133;51.012;-1.648;2022-10-23T11:04:55;7.38;;;0.50;;
53479;SDS011;56133;51.012;-1.648;2022-10-23T11:07:34;3.75;;;0.50;;
53479;SDS011;56133;51.012;-1.648;2022-10-23T11:10:12;3.72;;;0.30;;
53479;SDS011;56133;51.012;-1.648;2022-10-23T11:12:41;5.18;;;0.50;;
53479;SDS011;56133;51.012;-1.648;2022-10-23T11:15:15;2.13;;;0.40;;
53479;SDS011;56133;51.012;-1.648;2022-10-23T11:17:49;3.78;;;0.60;;
53479;SDS011;56133;51.012;-1.648;2022-10-23T11:25:52;5.68;;;0.70;;
53479;SDS011;56133;51.012;-1.648;2022-10-23T11:28:42;4.90;;;0.80;;
53479;SDS011;56133;51.012;-1.648;2022-10-23T11:34:27;2.95;;;0.52;;
53479;SDS011;56133;51.012;-1.648;2022-10-23T11:37:06;3.22;;;0.47;;
53479;SDS011;56133;51.012;-1.648;2022-10-23T11:39:33;4.25;;;0.30;;
53479;SDS011;56133;51.012;-1.648;2022-10-23T11:52:38;2.15;;;0.40;;
53479;SDS011;56133;51.012;-1.648;2022-10-23T11:58:00;2.95;;;0.40;;
53479;SDS011;56133;51.012;-1.648;2022-10-23T12:00:59;5.45;;;0.50;;
53479;SDS011;56133;51.012;-1.648;2022-10-23T12:03:31;5.23;;;0.60;;
53479;SDS011;56133;51.012;-1.648;2022-10-23T12:06:05;5.60;;;0.57;;
53479;SDS011;56133;51.012;-1.648;2022-10-23T12:08:40;3.55;;;0.50;;
53479;SDS011;56133;51.012;-1.648;2022-10-23T12:11:23;5.68;;;0.40;;
53479;SDS011;56133;51.012;-1.648;2022-10-23T12:14:41;4.30;;;0.40;;
53479;SDS011;56133;51.012;-1.648;2022-10-23T12:19:48;3.35;;;0.50;;
53479;SDS011;56133;51.012;-1.648;2022-10-23T12:22:18;3.92;;;1.45;;
53479;SDS011;56133;51.012;-1.648;2022-10-23T12:27:31;4.55;;;0.63;;
53479;SDS011;56133;51.012;-1.648;2022-10-23T12:30:23;2.78;;;0.60;;
53479;SDS011;56133;51.012;-1.648;2022-10-23T12:38:14;2.05;;;0.50;;
53479;SDS011;56133;51.012;-1.648;2022-10-23T12:40:53;3.95;;;0.60;;
53479;SDS011;56133;51.012;-1.648;2022-10-23T12:43:21;5.47;;;0.60;;
53479;SDS011;56133;51.012;-1.648;2022-10-23T12:45:50;6.13;;;0.60;;
53479;SDS011;56133;51.012;-1.648;2022-10-23T12:48:19;2.33;;;0.45;;
53479;SDS011;56133;51.012;-1.648;2022-10-23T12:50:47;2.97;;;0.50;;
53479;SDS011;56133;51.012;-1.648;2022-10-23T12:53:15;4.28;;;0.52;;
53479;SDS011;56133;51.012;-1.648;2022-10-23T12:55:47;4.30;;;0.50;;
53479;SDS011;56133;51.012;-1.648;2022-10-23T12:58:20;5.05;;;0.80;;
53479;SDS011;56133;51.012;-1.648;2022-10-23T13:00:54;3.28;;;0.88;;
53479;SDS011;56133;51.012;-1.648;2022-10-23T13:03:21;3.27;;;0.50;;
53479;SDS011;56133;51.012;-1.648;2022-10-23T13:05:52;3.22;;;0.60;;
53479;SDS011;56133;51.012;-1.648;2022-10-23T13:08:20;3.00;;;0.50;;
53479;SDS011;56133;51.012;-1.648;2022-10-23T13:10:47;4.50;;;0.70;;
53479;SDS011;56133;51.012;-1.648;2022-10-23T13:13:14;3.67;;;0.60;;
53479;SDS011;56133;51.012;-1.648;2022-10-23T13:15:44;2.35;;;0.80;;
53479;SDS011;56133;51.012;-1.648;2022-10-23T13:18:10;4.07;;;0.65;;
53479;SDS011;56133;51.012;-1.648;2022-10-23T13:20:41;4.78;;;0.50;;
53479;SDS011;56133;51.012;-1.648;2022-10-23T13:23:31;3.20;;;0.50;;
53479;SDS011;56133;51.012;-1.648;2022-10-23T13:26:05;3.78;;;0.63;;
53479;SDS011;56133;51.012;-1.648;2022-10-23T13:28:48;2.25;;;0.50;;
53479;SDS011;56133;51.012;-1.648;2022-10-23T13:33:49;4.13;;;0.50;;
53479;SDS011;56133;51.012;-1.648;2022-10-23T13:38:43;4.55;;;0.70;;
53479;SDS011;56133;51.012;-1.648;2022-10-23T13:41:17;3.90;;;0.77;;
53479;SDS011;56133;51.012;-1.648;2022-10-23T13:43:44;6.03;;;1.00;;
53479;SDS011;56133;51.012;-1.648;2022-10-23T13:46:13;4.55;;;0.98;;
53479;SDS011;56133;51.012;-1.648;2022-10-23T13:48:46;5.60;;;1.30;;
53479;SDS011;56133;51.012;-1.648;2022-10-23T13:51:16;8.90;;;1.40;;
53479;SDS011;56133;51.012;-1.648;2022-10-23T13:53:45;5.82;;;1.60;;
53479;SDS011;56133;51.012;-1.648;2022-10-23T13:56:11;10.82;;;1.50;;
53479;SDS011;56133;51.012;-1.648;2022-10-23T13:58:38;5.05;;;1.60;;
53479;SDS011;56133;51.012;-1.648;2022-10-23T14:01:04;7.90;;;1.60;;
53479;SDS011;56133;51.012;-1.648;2022-10-23T14:03:34;4.75;;;1.50;;
53479;SDS011;56133;51.012;-1.648;2022-10-23T14:05:59;4.60;;;1.38;;
53479;SDS011;56133;51.012;-1.648;2022-10-23T14:08:25;6.43;;;1.77;;
53479;SDS011;56133;51.012;-1.648;2022-10-23T14:10:50;6.18;;;2.10;;
53479;SDS011;56133;51.012;-1.648;2022-10-23T14:13:16;6.88;;;1.90;;
53479;SDS011;56133;51.012;-1.648;2022-10-23T14:15:41;9.15;;;2.20;;
53479;SDS011;56133;51.012;-1.648;2022-10-23T14:18:07;6.18;;;2.00;;
53479;SDS011;56133;51.012;-1.648;2022-10-23T14:20:32;7.95;;;1.63;;
53479;SDS011;56133;51.012;-1.648;2022-10-23T14:22:58;8.43;;;2.17;;
53479;SDS011;56133;51.012;-1.648;2022-10-23T14:25:23;5.20;;;2.17;;
53479;SDS011;56133;51.012;-1.648;2022-10-23T14:27:49;9.02;;;2.50;;
53479;SDS011;56133;51.012;-1.648;2022-10-23T14:30:14;10.05;;;3.00;;
53479;SDS011;56133;51.012;-1.648;2022-10-23T14:32:40;7.75;;;3.30;;
53479;SDS011;56133;51.012;-1.648;2022-10-23T14:35:05;16.20;;;3.70;;
53479;SDS011;56133;51.012;-1.648;2022-10-23T14:37:32;10.65;;;3.90;;
53479;SDS011;56133;51.012;-1.648;2022-10-23T14:39:58;9.55;;;4.38;;
53479;SDS011;56133;51.012;-1.648;2022-10-23T14:42:24;15.05;;;5.85;;
53479;SDS011;56133;51.012;-1.648;2022-10-23T14:44:50;9.10;;;4.22;;
53479;SDS011;56133;51.012;-1.648;2022-10-23T14:47:16;8.73;;;3.70;;
53479;SDS011;56133;51.012;-1.648;2022-10-23T14:49:47;15.23;;;4.03;;
53479;SDS011;56133;51.012;-1.648;2022-10-23T14:52:15;7.93;;;3.33;;
53479;SDS011;56133;51.012;-1.648;2022-10-23T14:54:41;12.02;;;3.20;;
53479;SDS011;56133;51.012;-1.648;2022-10-23T14:57:07;11.05;;;3.22;;
53479;SDS011;56133;51.012;-1.648;2022-10-23T14:59:35;12.65;;;4.20;;
53479;SDS011;56133;51.012;-1.648;2022-10-23T15:02:01;197.30;;;13.48;;
53479;SDS011;56133;51.012;-1.648;2022-10-23T15:04:27;29.33;;;3.50;;
53479;SDS011;56133;51.012;-1.648;2022-10-23T15:06:52;41.55;;;3.20;;
53479;SDS011;56133;51.012;-1.648;2022-10-23T15:09:18;26.80;;;1.73;;
53479;SDS011;56133;51.012;-1.648;2022-10-23T15:11:46;2.80;;;0.60;;
53479;SDS011;56133;51.012;-1.648;2022-10-23T15:14:12;1.52;;;0.60;;
53479;SDS011;56133;51.012;-1.648;2022-10-23T15:16:38;2.83;;;1.20;;
53479;SDS011;56133;51.012;-1.648;2022-10-23T15:19:07;2.95;;;0.80;;
53479;SDS011;56133;51.012;-1.648;2022-10-23T15:21:37;12.98;;;6.85;;
53479;SDS011;56133;51.012;-1.648;2022-10-23T15:24:03;11.77;;;2.90;;
53479;SDS011;56133;51.012;-1.648;2022-10-23T15:26:28;3.65;;;1.40;;
53479;SDS011;56133;51.012;-1.648;2022-10-23T15:28:55;3.97;;;1.10;;
53479;SDS011;56133;51.012;-1.648;2022-10-23T15:33:57;2.00;;;0.60;;
53479;SDS011;56133;51.012;-1.648;2022-10-23T15:36:24;2.55;;;0.50;;
53479;SDS011;56133;51.012;-1.648;2022-10-23T15:38:50;1.42;;;0.55;;
53479;SDS011;56133;51.012;-1.648;2022-10-23T15:41:21;4.15;;;0.77;;
53479;SDS011;56133;51.012;-1.648;2022-10-23T15:43:53;4.22;;;0.73;;
53479;SDS011;56133;51.012;-1.648;2022-10-23T15:46:19;5.60;;;0.80;;
53479;SDS011;56133;51.012;-1.648;2022-10-23T15:48:44;6.75;;;0.85;;
53479;SDS011;56133;51.012;-1.648;2022-10-23T15:51:10;5.30;;;1.00;;
53479;SDS011;56133;51.012;-1.648;2022-10-23T15:53:35;8.32;;;1.15;;
53479;SDS011;56133;51.012;-1.648;2022-10-23T15:56:01;4.15;;;1.15;;
53479;SDS011;56133;51.012;-1.648;2022-10-23T15:58:27;7.30;;;1.30;;
53479;SDS011;56133;51.012;-1.648;2022-10-23T16:00:52;11.32;;;1.48;;
53479;SDS011;56133;51.012;-1.648;2022-10-23T16:03:18;14.13;;;1.58;;
53479;SDS011;56133;51.012;-1.648;2022-10-23T16:05:43;15.25;;;1.60;;
53479;SDS011;56133;51.012;-1.648;2022-10-23T16:08:08;17.13;;;2.38;;
53479;SDS011;56133;51.012;-1.648;2022-10-23T16:10:37;15.25;;;1.80;;
53479;SDS011;56133;51.012;-1.648;2022-10-23T16:13:03;15.80;;;2.13;;
53479;SDS011;56133;51.012;-1.648;2022-10-23T16:15:29;22.88;;;3.13;;
53479;SDS011;56133;51.012;-1.648;2022-10-23T16:17:54;33.90;;;3.92;;
53479;SDS011;56133;51.012;-1.648;2022-10-23T16:20:20;26.45;;;3.80;;
53479;SDS011;56133;51.012;-1.648;2022-10-23T16:22:45;23.90;;;3.72;;
53479;SDS011;56133;51.012;-1.648;2022-10-23T16:25:14;28.00;;;4.22;;